Time;durP1;ratioP1;P1;durP2;ratioP2;P2;SDS_P1;SDS_P2;PMS_P1;PMS_P2;Temp;Humidity;BMP_temperature;BMP_pressure;BME280_temperature;BME280_humidity;BME280_pressure;Samples;Min_cycle;Max_cycle;Signal;HPM_P1;HPM_P2
2021/04/02 00:00:53;;;;;;;31.40;13.57;;;13.90;52.80;;;;;;4994136;28;20026;-69
2021/04/02 00:03:25;;;;;;;25.95;13.23;;;13.90;52.50;;;;;;5003031;28;20026;-70
2021/04/02 00:05:53;;;;;;;29.15;13.85;;;13.90;52.50;;;;;;5013034;28;20448;-69
2021/04/02 00:08:19;;;;;;;24.25;13.07;;;13.80;52.20;;;;;;5013403;28;20030;-69
2021/04/02 00:10:52;;;;;;;32.42;13.15;;;13.70;52.40;;;;;;5021163;28;20112;-69
2021/04/02 00:13:20;;;;;;;28.48;13.20;;;13.60;53.00;;;;;;5029717;28;20033;-69
2021/04/02 00:15:47;;;;;;;26.58;12.68;;;13.60;52.90;;;;;;5012823;28;20029;-70
2021/04/02 00:18:13;;;;;;;26.05;12.35;;;13.50;53.10;;;;;;5013298;28;20433;-69
2021/04/02 00:20:39;;;;;;;28.88;12.70;;;13.50;53.10;;;;;;5013219;28;20085;-69
2021/04/02 00:23:06;;;;;;;24.70;11.65;;;13.40;53.30;;;;;;5012658;28;20435;-69
2021/04/02 00:25:32;;;;;;;21.45;11.35;;;13.40;53.20;;;;;;5012539;28;20073;-69
2021/04/02 00:27:57;;;;;;;18.13;9.15;;;13.30;53.40;;;;;;5013079;28;20100;-69
2021/04/02 00:30:37;;;;;;;19.85;9.50;;;13.20;53.60;;;;;;5012318;28;20033;-69
2021/04/02 00:33:03;;;;;;;15.18;7.28;;;13.20;54.00;;;;;;5022186;28;20449;-69
2021/04/02 00:35:29;;;;;;;10.38;5.72;;;13.10;53.80;;;;;;5022460;28;20037;-69
2021/04/02 00:37:55;;;;;;;10.23;5.90;;;13.00;54.10;;;;;;5009758;28;20017;-68
2021/04/02 00:40:27;;;;;;;14.27;5.75;;;13.00;54.10;;;;;;5024216;28;20394;-69
2021/04/02 00:42:53;;;;;;;12.65;6.28;;;12.90;54.10;;;;;;5017558;28;20452;-69
2021/04/02 00:45:20;;;;;;;14.77;6.15;;;12.90;54.10;;;;;;5012429;28;20057;-69
2021/04/02 00:47:47;;;;;;;14.35;5.80;;;12.90;54.10;;;;;;5012822;28;20026;-69
2021/04/02 00:50:35;;;;;;;16.35;6.13;;;12.80;54.00;;;;;;5012862;28;20371;-69
2021/04/02 00:53:00;;;;;;;10.93;6.25;;;12.80;54.10;;;;;;4998994;28;20030;-69
2021/04/02 00:55:26;;;;;;;13.18;5.97;;;12.70;54.20;;;;;;4992400;28;20026;-69
2021/04/02 00:57:52;;;;;;;11.13;5.78;;;12.70;54.40;;;;;;5012563;28;20084;-68
2021/04/02 01:00:18;;;;;;;10.13;5.15;;;12.60;54.30;;;;;;5012749;28;20489;-69
2021/04/02 01:02:45;;;;;;;9.38;4.57;;;12.60;54.30;;;;;;5011202;28;20517;-69
2021/04/02 01:05:16;;;;;;;9.63;3.80;;;12.50;54.30;;;;;;5011970;28;20029;-69
2021/04/02 01:07:47;;;;;;;8.77;3.88;;;12.40;54.20;;;;;;5012352;28;20534;-68
2021/04/02 01:10:14;;;;;;;8.68;3.75;;;12.40;54.30;;;;;;5018392;28;20033;-69
2021/04/02 01:12:40;;;;;;;6.72;3.38;;;12.30;54.10;;;;;;5027490;28;20033;-69
2021/04/02 01:15:29;;;;;;;8.02;4.05;;;12.30;54.00;;;;;;5030779;28;20029;-69
2021/04/02 01:17:56;;;;;;;7.15;3.42;;;12.20;54.10;;;;;;5001239;28;20079;-69
2021/04/02 01:20:24;;;;;;;5.70;3.63;;;12.20;54.10;;;;;;5012274;28;20076;-69
2021/04/02 01:22:51;;;;;;;9.77;4.45;;;12.20;54.40;;;;;;5012280;28;20038;-69
2021/04/02 01:25:26;;;;;;;7.75;4.68;;;12.20;54.40;;;;;;5011102;28;20044;-69
2021/04/02 01:28:46;;;;;;;8.82;4.43;;;12.20;54.70;;;;;;5012311;28;20117;-69
2021/04/02 01:31:12;;;;;;;10.88;4.38;;;12.10;54.40;;;;;;4971746;28;20030;-69
2021/04/02 01:33:39;;;;;;;8.07;4.28;;;12.10;54.30;;;;;;5014304;28;20421;-69
2021/04/02 01:36:05;;;;;;;9.85;4.20;;;12.00;54.30;;;;;;5019552;28;20393;-69
2021/04/02 01:38:36;;;;;;;6.43;4.18;;;11.90;54.30;;;;;;5015265;28;20034;-69
2021/04/02 01:41:07;;;;;;;8.80;3.72;;;11.80;54.40;;;;;;5019635;28;20068;-69
2021/04/02 01:43:35;;;;;;;8.65;3.80;;;11.70;54.60;;;;;;5029856;28;20104;-69
2021/04/02 01:46:03;;;;;;;7.75;4.00;;;11.60;54.60;;;;;;5016092;28;20030;-70
2021/04/02 01:48:30;;;;;;;10.88;4.03;;;11.50;54.80;;;;;;5011803;28;20022;-69
2021/04/02 01:50:57;;;;;;;7.50;3.83;;;11.50;54.90;;;;;;5011453;28;20036;-69
2021/04/02 01:53:26;;;;;;;9.00;4.45;;;11.40;54.90;;;;;;5011656;28;20036;-69
2021/04/02 01:55:54;;;;;;;4.85;3.22;;;11.30;54.70;;;;;;5010835;28;20030;-69
2021/04/02 01:58:20;;;;;;;6.25;3.53;;;11.30;54.80;;;;;;5011282;28;20398;-69
2021/04/02 02:00:50;;;;;;;6.72;3.38;;;11.20;54.70;;;;;;5011117;28;20033;-69
2021/04/02 02:03:17;;;;;;;7.88;3.33;;;11.10;55.00;;;;;;5011504;28;20025;-69
2021/04/02 02:05:46;;;;;;;6.38;3.13;;;11.00;55.00;;;;;;5010297;28;20034;-70
2021/04/02 02:08:14;;;;;;;6.55;3.67;;;11.00;54.90;;;;;;5011404;28;20037;-69
2021/04/02 02:10:40;;;;;;;8.02;3.60;;;11.00;55.00;;;;;;5014348;28;20036;-69
2021/04/02 02:13:08;;;;;;;7.22;3.67;;;10.90;55.00;;;;;;5016613;28;20367;-69
2021/04/02 02:15:38;;;;;;;13.00;4.05;;;10.90;55.00;;;;;;5006977;28;20073;-68
2021/04/02 02:18:07;;;;;;;5.95;3.20;;;10.90;55.10;;;;;;5011043;28;20026;-68
2021/04/02 02:20:37;;;;;;;5.68;3.33;;;10.80;55.30;;;;;;5011177;28;20030;-69
2021/04/02 02:23:03;;;;;;;7.38;3.47;;;10.80;55.20;;;;;;5011035;28;20030;-68
2021/04/02 02:25:29;;;;;;;6.88;3.50;;;10.70;55.10;;;;;;5010301;28;20053;-69
2021/04/02 02:27:55;;;;;;;5.35;3.38;;;10.60;55.60;;;;;;5010825;28;20394;-69
2021/04/02 02:30:26;;;;;;;5.95;3.30;;;10.60;55.10;;;;;;5010799;28;20041;-73
2021/04/02 02:32:53;;;;;;;8.32;3.28;;;10.50;55.10;;;;;;5010670;28;20504;-69
2021/04/02 02:35:19;;;;;;;4.90;3.28;;;10.40;55.00;;;;;;5017982;28;20022;-69
2021/04/02 02:37:46;;;;;;;8.32;3.30;;;10.40;54.80;;;;;;5022159;28;20052;-69
2021/04/02 02:40:22;;;;;;;8.80;4.00;;;10.40;54.80;;;;;;5023695;28;20037;-69
2021/04/02 02:42:49;;;;;;;9.63;3.40;;;10.30;54.70;;;;;;5014525;28;20030;-69
2021/04/02 02:45:16;;;;;;;8.45;3.42;;;10.20;54.60;;;;;;5028729;28;20080;-69
2021/04/02 02:47:41;;;;;;;4.93;3.08;;;10.10;55.20;;;;;;5010759;28;20133;-69
2021/04/02 02:50:16;;;;;;;9.40;3.33;;;10.10;54.70;;;;;;5010478;28;20584;-69
2021/04/02 02:52:42;;;;;;;3.60;2.80;;;10.10;55.20;;;;;;5010489;28;20065;-69
2021/04/02 02:55:10;;;;;;;8.82;3.53;;;10.10;55.00;;;;;;5009171;28;20025;-69
2021/04/02 02:57:37;;;;;;;6.07;3.30;;;10.10;55.20;;;;;;5010478;28;20057;-69
2021/04/02 03:00:12;;;;;;;6.03;3.28;;;10.10;55.20;;;;;;5010313;28;20030;-68
2021/04/02 03:02:40;;;;;;;9.52;4.20;;;10.10;55.10;;;;;;5010614;28;20036;-69
2021/04/02 03:05:08;;;;;;;6.82;3.83;;;10.00;54.90;;;;;;5010959;28;20057;-69
2021/04/02 03:07:36;;;;;;;7.00;3.60;;;9.90;55.00;;;;;;5010239;28;20029;-69
2021/04/02 03:10:03;;;;;;;5.78;3.55;;;9.80;55.20;;;;;;5015094;28;20085;-69
2021/04/02 03:12:31;;;;;;;5.45;3.67;;;9.80;55.30;;;;;;5016279;28;20496;-69
2021/04/02 03:15:00;;;;;;;4.43;3.63;;;9.80;55.40;;;;;;5009503;28;20073;-68
2021/04/02 03:17:26;;;;;;;7.47;3.65;;;9.70;55.30;;;;;;5010325;28;20113;-69
2021/04/02 03:19:54;;;;;;;8.85;3.67;;;9.60;55.40;;;;;;5009974;28;20026;-69
2021/04/02 03:22:20;;;;;;;7.13;4.03;;;9.60;55.40;;;;;;5010260;28;20048;-69
2021/04/02 03:24:48;;;;;;;7.55;3.92;;;9.50;55.40;;;;;;5009026;28;20029;-69
2021/04/02 03:27:14;;;;;;;9.07;3.83;;;9.50;55.40;;;;;;5010150;28;20076;-69
2021/04/02 03:29:41;;;;;;;6.43;3.85;;;9.40;55.30;;;;;;5009925;28;20501;-68
2021/04/02 03:32:12;;;;;;;8.88;3.80;;;9.40;55.60;;;;;;5009874;28;20045;-68
2021/04/02 03:34:40;;;;;;;7.68;4.03;;;9.30;55.70;;;;;;5006359;28;20490;-69
2021/04/02 03:37:10;;;;;;;6.72;3.53;;;9.30;55.70;;;;;;5021407;28;20029;-69
2021/04/02 03:39:41;;;;;;;9.23;3.72;;;9.20;55.90;;;;;;5023970;28;20030;-68
2021/04/02 03:42:08;;;;;;;7.82;4.15;;;9.20;56.10;;;;;;5021482;28;20037;-68
2021/04/02 03:44:35;;;;;;;5.07;4.03;;;9.10;55.80;;;;;;5024667;28;20026;-69
2021/04/02 03:47:03;;;;;;;4.85;4.00;;;9.10;55.80;;;;;;5009996;28;20478;-68
2021/04/02 03:49:34;;;;;;;4.90;3.47;;;9.00;56.10;;;;;;5009620;28;20099;-68
2021/04/02 03:52:10;;;;;;;5.67;3.90;;;9.00;56.20;;;;;;5009290;28;20030;-69
2021/04/02 03:54:37;;;;;;;4.13;3.67;;;9.00;56.20;;;;;;5009146;28;20284;-69
2021/04/02 03:57:05;;;;;;;5.25;3.53;;;9.00;56.00;;;;;;5009887;28;20022;-68
2021/04/02 03:59:35;;;;;;;6.85;3.55;;;9.00;56.00;;;;;;5009857;28;20409;-69
2021/04/02 04:02:00;;;;;;;5.47;3.85;;;8.90;56.10;;;;;;5009844;28;20057;-69
2021/04/02 04:04:29;;;;;;;6.25;3.45;;;8.90;56.60;;;;;;5008909;28;20232;-69
2021/04/02 04:06:58;;;;;;;5.78;3.80;;;8.90;56.10;;;;;;5009113;28;20159;-69
2021/04/02 04:09:29;;;;;;;5.43;3.75;;;8.90;56.10;;;;;;5009621;28;20046;-69
2021/04/02 04:11:57;;;;;;;8.38;3.80;;;8.90;56.10;;;;;;5021194;28;20024;-69
2021/04/02 04:14:24;;;;;;;8.43;3.70;;;8.80;56.00;;;;;;5015535;28;20030;-69
2021/04/02 04:16:51;;;;;;;6.75;3.63;;;8.80;56.10;;;;;;5009501;28;20508;-69
2021/04/02 04:19:20;;;;;;;8.98;3.90;;;8.80;56.10;;;;;;5009849;28;20057;-69
2021/04/02 04:21:46;;;;;;;7.65;4.05;;;8.70;56.10;;;;;;5009473;28;20022;-68
2021/04/02 04:24:15;;;;;;;7.80;4.15;;;8.60;56.00;;;;;;5009023;28;20132;-70
2021/04/02 04:26:44;;;;;;;3.88;3.33;;;8.60;56.10;;;;;;5009182;28;20022;-69
2021/04/02 04:29:14;;;;;;;5.38;4.03;;;8.50;56.50;;;;;;5010754;28;20366;-68
2021/04/02 04:31:42;;;;;;;7.25;3.85;;;8.60;56.70;;;;;;5009505;28;20157;-68
2021/04/02 04:34:08;;;;;;;6.88;4.15;;;8.50;56.40;;;;;;5008615;28;20105;-68
2021/04/02 04:36:35;;;;;;;6.88;3.60;;;8.50;56.30;;;;;;5009217;28;20390;-69
2021/04/02 04:39:02;;;;;;;6.70;4.20;;;8.50;56.30;;;;;;5021015;28;20034;-68
2021/04/02 04:41:28;;;;;;;5.72;4.30;;;8.40;56.20;;;;;;5019052;28;20022;-68
2021/04/02 04:43:57;;;;;;;6.32;4.00;;;8.40;56.40;;;;;;5032305;28;20025;-69
2021/04/02 04:46:23;;;;;;;7.32;4.43;;;8.30;56.50;;;;;;5013803;28;20018;-68
2021/04/02 04:48:49;;;;;;;7.88;4.18;;;8.30;56.50;;;;;;5012618;28;20477;-68
2021/04/02 04:51:20;;;;;;;6.47;4.38;;;8.30;56.40;;;;;;5012506;28;20060;-68
2021/04/02 04:53:49;;;;;;;7.63;4.03;;;8.30;56.70;;;;;;5012515;28;20030;-68
2021/04/02 04:56:17;;;;;;;7.97;3.78;;;8.30;56.60;;;;;;5012302;28;20487;-68
2021/04/02 04:58:47;;;;;;;6.63;4.53;;;8.20;56.60;;;;;;5012941;28;20022;-68
2021/04/02 05:01:14;;;;;;;6.90;4.05;;;8.20;57.00;;;;;;5057855;23;20081;-88
2021/04/02 05:03:41;;;;;;;5.22;4.18;;;8.20;57.00;;;;;;5017017;28;20040;-88
2021/04/02 05:06:08;;;;;;;7.55;4.22;;;8.20;56.90;;;;;;5019127;28;20033;-88
2021/04/02 05:08:43;;;;;;;8.70;4.30;;;8.20;56.90;;;;;;5013924;28;20033;-89
2021/04/02 05:11:21;;;;;;;5.38;3.90;;;8.20;56.90;;;;;;5013806;28;20046;-87
2021/04/02 05:13:50;;;;;;;7.78;4.43;;;8.10;57.00;;;;;;5016359;28;20026;-88
2021/04/02 05:16:16;;;;;;;8.57;4.57;;;8.10;56.90;;;;;;5020424;28;20026;-88
2021/04/02 05:18:43;;;;;;;8.02;4.00;;;8.10;56.90;;;;;;5026324;28;20061;-88
2021/04/02 05:21:08;;;;;;;7.85;4.50;;;8.00;57.00;;;;;;5033698;28;20120;-88
2021/04/02 05:23:34;;;;;;;7.70;5.05;;;8.10;57.10;;;;;;5021051;28;20076;-86
2021/04/02 05:26:00;;;;;;;8.27;4.72;;;8.10;57.30;;;;;;5017495;28;20064;-87
2021/04/02 05:28:25;;;;;;;8.02;3.90;;;8.00;57.20;;;;;;5024379;28;20029;-87
2021/04/02 05:30:51;;;;;;;10.85;4.25;;;8.10;57.10;;;;;;5024684;28;20072;-88
2021/04/02 05:33:17;;;;;;;8.35;4.60;;;8.10;57.00;;;;;;5028506;28;20040;-87
2021/04/02 05:35:42;;;;;;;6.93;4.13;;;8.10;57.00;;;;;;5025624;28;20415;-87
2021/04/02 05:38:08;;;;;;;8.43;4.60;;;8.10;57.00;;;;;;5012907;28;20033;-86
2021/04/02 05:40:34;;;;;;;6.80;4.18;;;8.10;57.20;;;;;;5013732;28;20030;-87
2021/04/02 05:43:05;;;;;;;6.90;4.35;;;8.10;57.20;;;;;;5013878;28;20084;-87
2021/04/02 05:45:34;;;;;;;6.15;4.93;;;8.20;57.50;;;;;;5014872;28;20040;-87
2021/04/02 05:48:01;;;;;;;6.40;4.50;;;8.20;57.70;;;;;;5013965;28;20161;-87
2021/04/02 05:50:32;;;;;;;7.55;4.63;;;8.30;57.60;;;;;;5013555;28;20088;-87
2021/04/02 05:53:04;;;;;;;8.40;5.25;;;8.40;57.50;;;;;;5014438;28;20026;-86
2021/04/02 05:55:33;;;;;;;7.63;4.68;;;8.40;57.50;;;;;;5013912;28;20484;-87
2021/04/02 05:57:59;;;;;;;6.50;4.57;;;8.50;57.50;;;;;;5013725;28;20041;-86
2021/04/02 06:00:26;;;;;;;6.68;4.30;;;8.50;57.30;;;;;;5021529;28;20037;-87
2021/04/02 06:02:51;;;;;;;8.20;4.80;;;8.50;57.40;;;;;;5023572;28;20131;-86
2021/04/02 06:05:17;;;;;;;7.60;4.72;;;8.60;57.60;;;;;;5007275;28;20050;-86
2021/04/02 06:07:44;;;;;;;10.30;4.68;;;8.60;57.80;;;;;;5012997;28;20081;-86
2021/04/02 06:10:10;;;;;;;8.68;5.03;;;8.70;57.70;;;;;;5014809;28;20025;-87
2021/04/02 06:12:40;;;;;;;6.55;5.38;;;8.70;57.50;;;;;;5013423;28;20026;-87
2021/04/02 06:15:06;;;;;;;8.10;4.63;;;8.70;57.60;;;;;;5013148;28;20053;-87
2021/04/02 06:18:08;;;;;;;7.68;4.45;;;8.70;57.70;;;;;;5013736;28;20049;-87
2021/04/02 06:20:43;;;;;;;7.72;4.82;;;8.70;57.50;;;;;;4990388;28;20035;-87
2021/04/02 06:23:17;;;;;;;7.90;4.78;;;8.70;57.30;;;;;;5004203;28;20029;-87
2021/04/02 06:25:56;;;;;;;9.15;5.03;;;8.70;57.50;;;;;;5014653;28;20134;-87
2021/04/02 06:28:27;;;;;;;8.20;5.00;;;8.80;57.70;;;;;;5015647;28;20037;-87
2021/04/02 06:31:11;;;;;;;5.65;5.03;;;8.80;57.40;;;;;;5027642;28;20539;-88
2021/04/02 06:33:40;;;;;;;8.52;5.32;;;8.90;57.60;;;;;;5018785;28;20034;-88
2021/04/02 06:36:16;;;;;;;13.73;5.72;;;8.90;57.40;;;;;;5015854;28;20029;-89
2021/04/02 06:39:02;;;;;;;7.57;5.30;;;9.00;57.50;;;;;;5026423;28;20543;-88
2021/04/02 06:41:30;;;;;;;9.23;5.55;;;9.10;57.50;;;;;;5023519;28;20024;-88
2021/04/02 06:43:58;;;;;;;8.50;5.80;;;9.20;57.30;;;;;;5014929;28;20502;-89
2021/04/02 06:46:35;;;;;;;8.77;5.43;;;9.40;57.40;;;;;;5016649;28;20026;-88
2021/04/02 06:49:10;;;;;;;9.65;5.70;;;9.50;57.50;;;;;;5016852;28;20112;-90
2021/04/02 06:51:40;;;;;;;8.10;5.20;;;9.50;57.60;;;;;;5017042;28;20037;-89
2021/04/02 06:54:07;;;;;;;8.93;6.05;;;9.50;57.40;;;;;;5017075;28;20018;-89
2021/04/02 06:56:34;;;;;;;7.13;5.25;;;9.50;57.40;;;;;;5015358;28;20045;-89
2021/04/02 06:59:01;;;;;;;9.95;5.75;;;9.50;57.60;;;;;;5030904;28;20503;-88
2021/04/02 07:01:32;;;;;;;6.75;5.43;;;9.50;57.70;;;;;;5025255;28;20041;-90
2021/04/02 07:03:59;;;;;;;9.82;5.97;;;9.50;58.00;;;;;;4998164;28;20193;-90
2021/04/02 07:06:26;;;;;;;9.00;5.75;;;9.50;57.80;;;;;;5011025;28;20049;-89
2021/04/02 07:08:52;;;;;;;10.75;5.93;;;9.50;57.70;;;;;;4998981;28;20026;-88
2021/04/02 07:11:21;;;;;;;10.18;6.05;;;9.50;57.70;;;;;;5011113;28;20026;-89
2021/04/02 07:13:55;;;;;;;9.80;6.28;;;9.50;57.90;;;;;;5011486;28;20025;-89
2021/04/02 07:16:25;;;;;;;15.05;6.20;;;9.60;58.00;;;;;;5017270;28;20026;-89
2021/04/02 07:18:50;;;;;;;8.18;5.55;;;9.50;58.00;;;;;;5015971;28;20030;-89
2021/04/02 07:21:17;;;;;;;9.02;5.85;;;9.50;57.60;;;;;;5018501;28;20068;-88
2021/04/02 07:23:43;;;;;;;11.90;6.05;;;9.60;57.80;;;;;;5017097;28;20026;-89
2021/04/02 07:26:10;;;;;;;7.60;5.60;;;9.60;58.10;;;;;;5016622;28;20122;-88
2021/04/02 07:28:39;;;;;;;7.65;6.15;;;9.70;57.80;;;;;;5018591;28;20030;-89
2021/04/02 07:31:06;;;;;;;7.55;5.82;;;9.80;57.60;;;;;;5021423;28;20057;-89
2021/04/02 07:33:37;;;;;;;10.38;5.82;;;10.00;57.80;;;;;;5019813;28;20022;-88
2021/04/02 07:36:04;;;;;;;7.88;5.72;;;10.00;57.70;;;;;;5015826;28;20026;-89
2021/04/02 07:38:38;;;;;;;7.60;5.32;;;10.20;57.70;;;;;;5015007;28;20030;-89
2021/04/02 07:41:15;;;;;;;7.47;5.80;;;10.30;57.40;;;;;;5015247;28;20047;-90
2021/04/02 07:43:50;;;;;;;9.52;5.88;;;10.40;57.40;;;;;;5009261;28;20543;-89
2021/04/02 07:46:20;;;;;;;8.05;5.95;;;10.40;57.40;;;;;;4994940;28;20037;-91
2021/04/02 07:49:10;;;;;;;9.77;6.20;;;10.40;57.40;;;;;;5009868;28;20029;-88
2021/04/02 07:51:48;;;;;;;8.60;6.00;;;10.30;57.30;;;;;;5006141;28;20066;-90
2021/04/02 07:54:21;;;;;;;10.23;5.75;;;10.20;57.40;;;;;;5008439;28;20022;-89
2021/04/02 07:56:50;;;;;;;;;;;10.30;57.40;;;;;;5012156;28;20019;-89
2021/04/02 07:59:17;;;;;;;8.88;5.65;;;10.30;56.80;;;;;;5007529;28;20001;-90
2021/04/02 08:02:01;;;;;;;6.13;5.07;;;10.40;56.90;;;;;;5016959;28;20057;-90
2021/04/02 08:04:40;;;;;;;7.68;6.03;;;10.40;56.70;;;;;;5011652;28;20096;-89
2021/04/02 08:07:17;;;;;;;7.38;5.60;;;10.50;57.00;;;;;;5017025;28;20106;-91
2021/04/02 08:09:50;;;;;;;10.63;5.78;;;10.50;57.00;;;;;;5015153;28;20036;-89
2021/04/02 08:12:16;;;;;;;7.88;6.30;;;10.50;56.90;;;;;;5014641;28;20427;-89
2021/04/02 08:14:50;;;;;;;14.88;6.32;;;10.50;56.70;;;;;;5018028;28;20111;-90
2021/04/02 08:17:22;;;;;;;7.72;6.10;;;10.50;57.00;;;;;;5018011;28;20077;-89
2021/04/02 08:19:48;;;;;;;80.35;40.28;;;10.60;56.80;;;;;;5015107;28;20156;-90
2021/04/02 08:22:17;;;;;;;9.50;6.72;;;10.70;57.60;;;;;;5017660;28;20030;-88
2021/04/02 08:24:48;;;;;;;7.78;6.32;;;10.80;57.20;;;;;;5017721;28;20033;-89
2021/04/02 08:27:15;;;;;;;10.55;6.95;;;10.90;56.70;;;;;;5016103;28;20030;-89
2021/04/02 08:29:43;;;;;;;9.88;5.82;;;10.90;56.70;;;;;;5016177;28;20030;-89
2021/04/02 08:32:11;;;;;;;9.55;6.32;;;10.90;56.40;;;;;;5026342;28;20408;-88
2021/04/02 08:34:38;;;;;;;6.97;5.57;;;11.10;56.20;;;;;;5014725;28;20060;-87
2021/04/02 08:37:13;;;;;;;7.63;5.53;;;11.20;55.90;;;;;;5023885;28;20029;-89
2021/04/02 08:39:39;;;;;;;9.75;6.30;;;11.30;55.60;;;;;;5023369;28;20033;-89
2021/04/02 08:42:07;;;;;;;6.07;5.43;;;11.40;55.60;;;;;;5023019;28;20511;-87
2021/04/02 08:44:40;;;;;;;6.78;5.20;;;12.00;54.90;;;;;;5032561;28;20052;-88
2021/04/02 08:47:08;;;;;;;7.10;5.93;;;12.60;54.10;;;;;;5017152;28;20038;-89
2021/04/02 08:49:54;;;;;;;6.93;4.97;;;13.30;53.50;;;;;;5016020;28;20045;-89
2021/04/02 08:52:23;;;;;;;5.30;4.65;;;14.00;52.30;;;;;;5014479;28;20030;-89
2021/04/02 08:55:08;;;;;;;7.43;4.65;;;14.50;51.50;;;;;;5013656;28;20023;-86
2021/04/02 08:57:35;;;;;;;7.18;4.50;;;15.10;50.20;;;;;;5022289;28;20056;-87
2021/04/02 09:00:05;;;;;;;11.85;7.90;;;15.90;49.10;;;;;;5017298;28;20037;-88
2021/04/02 09:02:32;;;;;;;8.15;5.07;;;16.00;48.90;;;;;;5020972;28;20029;-89
2021/04/02 09:05:01;;;;;;;6.82;4.93;;;16.00;49.20;;;;;;5012449;28;20030;-89
2021/04/02 09:07:26;;;;;;;6.50;5.32;;;15.50;49.10;;;;;;5023586;28;20424;-89
2021/04/02 09:09:52;;;;;;;7.15;5.25;;;15.00;50.00;;;;;;5028229;28;20044;-87
2021/04/02 09:12:20;;;;;;;6.28;5.50;;;14.60;50.50;;;;;;5032605;28;20026;-88
2021/04/02 09:14:48;;;;;;;8.23;5.95;;;14.20;51.10;;;;;;5030576;28;20076;-88
2021/04/02 09:17:24;;;;;;;8.00;5.40;;;14.00;51.20;;;;;;5024778;28;20041;-88
2021/04/02 09:19:51;;;;;;;5.65;4.70;;;14.40;50.60;;;;;;5015224;28;20030;-89
2021/04/02 09:22:18;;;;;;;6.47;5.13;;;14.60;50.30;;;;;;5013117;28;20115;-90
2021/04/02 09:24:44;;;;;;;5.97;4.88;;;15.10;49.70;;;;;;4994554;28;20393;-89
2021/04/02 09:27:13;;;;;;;6.93;5.13;;;16.20;47.40;;;;;;4996208;28;20396;-90
2021/04/02 09:29:42;;;;;;;6.90;4.78;;;17.10;46.20;;;;;;4998985;28;20138;-87
2021/04/02 09:32:08;;;;;;;5.97;4.82;;;17.60;44.70;;;;;;5020894;28;20022;-90
2021/04/02 09:34:33;;;;;;;5.72;4.90;;;16.70;45.80;;;;;;5013868;28;20510;-89
2021/04/02 09:37:00;;;;;;;5.50;4.22;;;16.10;46.90;;;;;;5013541;28;20068;-90
2021/04/02 09:39:28;;;;;;;7.38;5.13;;;15.40;47.80;;;;;;5021711;28;20033;-89
2021/04/02 09:41:56;;;;;;;12.73;5.68;;;15.00;48.50;;;;;;5011723;28;20041;-88
2021/04/02 09:44:28;;;;;;;7.10;4.80;;;15.60;48.00;;;;;;5019565;28;20049;-89
2021/04/02 09:47:15;;;;;;;7.80;4.75;;;16.40;47.20;;;;;;5037209;28;20077;-85
2021/04/02 09:49:42;;;;;;;16.58;6.93;;;16.30;46.80;;;;;;5037137;28;20034;-86
2021/04/02 09:52:09;;;;;;;11.38;6.38;;;16.50;46.50;;;;;;5028607;28;20034;-88
2021/04/02 09:54:36;;;;;;;7.78;5.15;;;16.80;45.80;;;;;;5026533;28;20099;-88
2021/04/02 09:57:08;;;;;;;5.20;4.03;;;17.10;46.10;;;;;;5021931;28;20120;-88
2021/04/02 09:59:34;;;;;;;6.78;4.50;;;17.30;45.80;;;;;;5013987;28;20021;-89
2021/04/02 10:02:00;;;;;;;4.47;3.83;;;17.20;46.00;;;;;;5021809;28;20040;-87
2021/04/02 10:04:26;;;;;;;5.03;4.13;;;17.20;46.10;;;;;;5013419;28;20069;-88
2021/04/02 10:06:52;;;;;;;8.27;3.88;;;17.20;46.20;;;;;;5015755;28;20030;-89
2021/04/02 10:09:18;;;;;;;4.80;4.15;;;17.30;45.60;;;;;;5011108;28;20448;-90
2021/04/02 10:11:49;;;;;;;21.98;14.23;;;17.30;45.40;;;;;;5021657;28;20133;-91
2021/04/02 10:14:17;;;;;;;4.20;3.80;;;17.40;45.10;;;;;;5014162;28;20022;-90
2021/04/02 10:16:45;;;;;;;4.80;3.58;;;17.40;44.70;;;;;;5022399;28;20060;-88
2021/04/02 10:19:12;;;;;;;4.95;3.85;;;17.50;44.90;;;;;;5020320;28;20018;-88
2021/04/02 10:21:37;;;;;;;4.15;3.65;;;17.60;44.50;;;;;;5023313;28;20030;-87
2021/04/02 10:24:05;;;;;;;5.60;4.00;;;17.50;44.40;;;;;;5014049;28;20056;-88
2021/04/02 10:26:31;;;;;;;3.97;3.40;;;17.40;44.60;;;;;;5013379;28;20025;-86
2021/04/02 10:28:56;;;;;;;4.30;3.85;;;17.40;44.90;;;;;;5013615;28;20428;-87
2021/04/02 10:31:22;;;;;;;3.97;3.67;;;17.40;44.40;;;;;;5026686;28;20488;-88
2021/04/02 10:33:48;;;;;;;3.70;3.40;;;17.30;44.30;;;;;;4997015;28;20037;-87
2021/04/02 10:36:14;;;;;;;4.25;3.85;;;17.00;44.00;;;;;;5001982;28;20030;-90
2021/04/02 10:38:40;;;;;;;3.97;3.58;;;17.10;44.00;;;;;;5027733;28;20147;-89
2021/04/02 10:41:06;;;;;;;4.03;3.63;;;17.10;43.80;;;;;;5040899;28;20009;-90
2021/04/02 10:43:32;;;;;;;4.93;3.60;;;17.10;44.00;;;;;;5034707;28;20033;-89
2021/04/02 10:45:58;;;;;;;3.65;3.25;;;17.20;43.90;;;;;;5023891;28;20029;-89
2021/04/02 10:48:24;;;;;;;3.85;3.42;;;17.40;43.40;;;;;;5023531;28;20034;-90
2021/04/02 10:50:50;;;;;;;3.42;3.13;;;17.40;43.20;;;;;;5018513;28;20129;-89
2021/04/02 10:53:16;;;;;;;3.30;3.00;;;17.60;43.30;;;;;;5018892;28;20467;-90
2021/04/02 10:55:43;;;;;;;4.38;2.90;;;17.70;43.00;;;;;;4997365;28;20481;-89
2021/04/02 10:58:09;;;;;;;4.10;3.22;;;17.80;43.10;;;;;;4995048;28;20481;-90
2021/04/02 11:00:36;;;;;;;4.90;3.50;;;17.80;42.50;;;;;;5013073;28;20038;-89
2021/04/02 11:03:03;;;;;;;3.08;2.80;;;17.90;42.50;;;;;;5046348;23;20136;-66
2021/04/02 11:05:28;;;;;;;4.55;2.70;;;18.00;42.30;;;;;;5005771;28;20021;-67
2021/04/02 11:07:54;;;;;;;3.25;2.95;;;18.00;41.90;;;;;;5022209;28;20036;-66
2021/04/02 11:10:20;;;;;;;4.22;3.00;;;18.10;41.60;;;;;;5030442;28;20025;-68
2021/04/02 11:12:46;;;;;;;3.45;3.22;;;18.10;41.70;;;;;;5030442;28;20040;-69
2021/04/02 11:15:12;;;;;;;2.58;2.38;;;18.20;41.80;;;;;;5029607;28;20092;-65
2021/04/02 11:17:40;;;;;;;3.13;2.83;;;18.10;41.50;;;;;;5030302;28;20032;-68
2021/04/02 11:20:08;;;;;;;3.45;2.78;;;18.10;41.90;;;;;;5030324;28;20037;-69
2021/04/02 11:22:34;;;;;;;2.67;2.47;;;18.10;41.90;;;;;;5030343;28;20026;-66
2021/04/02 11:25:00;;;;;;;2.80;2.60;;;18.20;42.10;;;;;;5029641;28;20029;-65
2021/04/02 11:27:25;;;;;;;4.35;2.60;;;18.40;41.50;;;;;;5030212;28;20512;-66
2021/04/02 11:29:55;;;;;;;2.70;2.13;;;18.40;41.50;;;;;;5014393;28;20509;-66
2021/04/02 11:32:21;;;;;;;3.60;2.40;;;18.60;41.60;;;;;;5010308;28;20504;-67
2021/04/02 11:34:47;;;;;;;2.65;2.45;;;18.70;41.60;;;;;;5020840;28;20017;-69
2021/04/02 11:37:12;;;;;;;2.45;2.25;;;18.80;41.20;;;;;;5015394;28;20022;-66
2021/04/02 11:39:38;;;;;;;3.42;2.65;;;18.70;41.20;;;;;;5019805;28;20106;-65
2021/04/02 11:42:05;;;;;;;4.55;2.75;;;18.70;41.00;;;;;;5017726;28;20025;-65
2021/04/02 11:44:31;;;;;;;3.78;2.60;;;18.70;40.70;;;;;;5019348;28;20087;-66
2021/04/02 11:46:57;;;;;;;2.40;2.20;;;18.70;40.90;;;;;;5012933;28;20036;-66
2021/04/02 11:49:22;;;;;;;3.95;2.65;;;18.60;40.70;;;;;;5014217;28;20371;-65
2021/04/02 11:51:48;;;;;;;3.05;2.35;;;18.60;40.50;;;;;;5014296;28;20040;-66
2021/04/02 11:54:14;;;;;;;2.78;2.47;;;18.60;40.30;;;;;;5013779;28;20029;-66
2021/04/02 11:56:40;;;;;;;4.07;2.35;;;18.60;40.50;;;;;;5014999;28;20029;-67
2021/04/02 11:59:06;;;;;;;3.95;2.50;;;18.60;40.20;;;;;;5020154;28;20026;-67
2021/04/02 12:01:31;;;;;;;3.25;2.95;;;18.60;40.20;;;;;;5022300;28;20079;-65
2021/04/02 12:03:57;;;;;;;2.53;2.28;;;18.60;40.70;;;;;;5013725;28;20678;-66
2021/04/02 12:06:23;;;;;;;2.55;2.30;;;18.70;40.90;;;;;;5017963;28;20036;-66
2021/04/02 12:08:48;;;;;;;4.65;2.15;;;18.80;40.60;;;;;;5014004;28;20370;-66
2021/04/02 12:11:14;;;;;;;2.42;2.17;;;18.70;40.10;;;;;;5002004;28;20026;-66
2021/04/02 12:13:39;;;;;;;2.63;2.42;;;18.70;40.10;;;;;;4994256;28;20041;-66
2021/04/02 12:16:06;;;;;;;2.83;2.17;;;18.70;40.60;;;;;;4995239;28;20690;-66
2021/04/02 12:18:31;;;;;;;3.13;2.70;;;18.60;40.50;;;;;;4994219;28;20026;-65
2021/04/02 12:20:57;;;;;;;2.70;2.50;;;18.50;40.40;;;;;;4994257;28;20471;-65
2021/04/02 12:23:23;;;;;;;15.50;9.98;;;18.40;41.10;;;;;;4994272;28;20065;-66
2021/04/02 12:25:49;;;;;;;2.80;2.60;;;18.40;40.40;;;;;;4993543;28;20030;-66
2021/04/02 12:28:15;;;;;;;2.60;2.40;;;18.40;40.70;;;;;;5008176;28;20062;-65
2021/04/02 12:30:41;;;;;;;2.78;2.30;;;18.50;40.50;;;;;;5013642;28;20069;-68
2021/04/02 12:33:07;;;;;;;2.97;2.20;;;18.50;40.80;;;;;;5012000;28;20022;-67
2021/04/02 12:35:33;;;;;;;2.00;1.90;;;18.70;41.00;;;;;;5026674;28;20079;-67
2021/04/02 12:37:58;;;;;;;4.47;2.10;;;18.80;40.80;;;;;;5021356;28;20034;-70
2021/04/02 12:40:25;;;;;;;2.25;2.05;;;18.90;40.30;;;;;;5033341;28;20033;-66
2021/04/02 12:42:52;;;;;;;2.65;2.45;;;18.80;40.00;;;;;;5033284;28;20025;-67
2021/04/02 12:45:18;;;;;;;2.22;2.13;;;18.90;40.00;;;;;;5033029;28;20022;-66
2021/04/02 12:47:44;;;;;;;2.10;2.00;;;18.90;39.80;;;;;;5033237;28;20169;-67
2021/04/02 12:50:14;;;;;;;9.32;2.60;;;18.90;39.80;;;;;;5033026;28;20030;-66
2021/04/02 12:52:40;;;;;;;2.25;2.05;;;18.70;39.70;;;;;;5026817;28;20022;-65
2021/04/02 12:55:10;;;;;;;2.83;2.30;;;18.60;40.10;;;;;;5012056;28;20037;-66